Flight Track Log - Related Links

Times and Time Zones

All times are in EDT time to prevent confusion due to time zone crossing. See the SWA1011 flight status page for this flight to view local times or setup timezone preferences in your user account.

Time Position Orientation Groundspeed Altitude Reporting Facility
EDT Latitude Longitude Course Direction KTS MPH feet Rate Location/Type
Thu 10:11:58 AM 37.7333 -122.2833 133° Southeast 174 200 2,100  Level Northern Cal TRACON
Thu 10:12:58 AM 37.7500 -122.3500 288° West 237 273 5,200 3,038 Climbing Northern Cal TRACON
Thu 10:13:17 AM 37.7517 -122.3700 276° West 236 272 6,100 2,600 Climbing Oakland Center
Thu 10:13:58 AM 37.7167 -122.4167 227° Southwest 242 278 7,800 1,842 Climbing Northern Cal TRACON
Thu 10:14:58 AM 37.6500 -122.4667 211° Southwest 282 325 9,200 2,000 Climbing Northern Cal TRACON
Thu 10:15:58 AM 37.5833 -122.4667 180° South 308 354 11,800 2,458 Climbing Northern Cal TRACON
Thu 10:16:21 AM 37.5539 -122.4581 167° South 309 356 12,600 2,786 Climbing Oakland Center
Thu 10:17:00 AM 37.1441 -121.9366 133° Southeast  Level FlightAware Approximate
Thu 10:17:22 AM 37.4661 -122.4239 163° South 343 395 15,700  Level Oakland Center
Thu 10:18:23 AM 37.4000 -122.3272 131° Southeast 367 422 18,500 2,803 Climbing Oakland Center
Thu 10:19:24 AM 37.3119 -122.2056 132° Southeast 391 450 21,400 2,754 Climbing Oakland Center
Thu 10:20:25 AM 37.2347 -122.0994 132° Southeast 408 470 24,100 2,341 Climbing Oakland Center
Thu 10:21:27 AM 37.1561 -121.9894 132° Southeast 422 486 26,200 1,902 Climbing Oakland Center
Thu 10:22:28 AM 37.0728 -121.8742 132° Southeast 442 509 28,000 1,869 Climbing Oakland Center
Thu 10:23:29 AM 36.9836 -121.7589 134° Southeast 458 527 30,000 1,918 Climbing Oakland Center
Thu 10:24:30 AM 36.8950 -121.6411 133° Southeast 465 535 31,900 2,262 Climbing Oakland Center
Thu 10:25:31 AM 36.8122 -121.5269 132° Southeast 460 529 34,600 2,098 Climbing Oakland Center
Thu 10:26:33 AM 36.7297 -121.4150 133° Southeast 441 507 36,200 1,415 Climbing Oakland Center
Thu 10:27:34 AM 36.6458 -121.3031 133° Southeast 441 507 37,500 1,377 Climbing Oakland Center
Thu 10:28:35 AM 36.5483 -121.1703 132° Southeast 434 499 39,000 738 Climbing Oakland Center
Thu 10:29:36 AM 36.4664 -121.0608 133° Southeast 433 498 39,000  Level Oakland Center
Thu 10:30:38 AM 36.3844 -120.9508 133° Southeast 430 495 39,000  Level Oakland Center
Thu 10:31:39 AM 36.3031 -120.8419 133° Southeast 430 495 39,000  Level Oakland Center
Thu 10:32:40 AM 36.2214 -120.7325 133° Southeast 430 495 39,000  Level Oakland Center
Thu 10:33:41 AM 36.1394 -120.6239 133° Southeast 430 495 39,000  Level Oakland Center
Thu 10:34:43 AM 36.0572 -120.5153 133° Southeast 431 496 39,000  Level Oakland Center
Thu 10:35:44 AM 35.9744 -120.4078 134° Southeast 428 493 39,000  Level Oakland Center
Thu 10:36:45 AM 35.8925 -120.2978 133° Southeast 431 496 39,000  Level Oakland Center
Thu 10:37:47 AM 35.8100 -120.1914 134° Southeast 427 491 39,000  Level Oakland Center
Thu 10:38:48 AM 35.7269 -120.0822 133° Southeast 431 496 39,000 -197 Level Oakland Center
Thu 10:39:49 AM 35.6175 -119.9631 138° Southeast 438 504 38,600 -683 Descending Oakland Center
Thu 10:40:51 AM 35.5008 -119.9669 182° South 434 499 37,600 -927 Descending Oakland Center
Thu 10:41:52 AM 35.3892 -119.9308 165° South 432 497 36,700 -955 Descending Oakland Center
Thu 10:43:03 AM 35.2878 -119.8017 134° Southeast 437 503 35,500 -947 Descending Los Angeles Center
Thu 10:44:05 AM 35.1919 -119.7067 141° Southeast 440 506 34,600 -1,403 Descending Los Angeles Center
Thu 10:45:07 AM 35.0964 -119.6128 141° Southeast 440 506 32,600 -1,984 Descending Los Angeles Center
Thu 10:46:09 AM 35.0039 -119.5189 140° Southeast 434 499 30,500 -2,032 Descending Los Angeles Center
Thu 10:47:11 AM 34.9131 -119.4286 141° Southeast 423 487 28,400 -1,984 Descending Los Angeles Center
Thu 10:48:13 AM 34.8256 -119.3417 141° Southeast 409 471 26,400 -2,032 Descending Los Angeles Center
Thu 10:49:15 AM 34.7378 -119.2531 140° Southeast 410 472 24,200 -2,371 Descending Los Angeles Center
Thu 10:50:17 AM 34.6281 -119.1467 141° Southeast 420 483 21,500 -2,371 Descending Los Angeles Center
Thu 10:51:19 AM 34.5411 -119.0617 141° Southeast 410 472 19,300 -2,081 Descending Los Angeles Center
Thu 10:52:21 AM 34.4547 -118.9817 143° Southeast 392 451 17,200 -1,887 Descending Los Angeles Center
Thu 10:53:23 AM 34.3589 -118.9281 155° Southeast 377 434 15,400 -1,645 Descending Los Angeles Center
Thu 10:54:25 AM 34.2681 -118.8714 153° Southeast 366 421 13,800 -1,790 Descending Los Angeles Center
Thu 10:55:27 AM 34.1631 -118.8106 154° Southeast 351 404 11,700 -1,790 Descending Los Angeles Center
Thu 10:56:29 AM 34.0728 -118.7769 163° South 332 382 10,100 -823 Descending Los Angeles Center
Thu 10:57:31 AM 34.0336 -118.6986 121° Southeast 286 329 10,000 -677 Descending Los Angeles Center
Thu 10:58:33 AM 34.0231 -118.5933 97° East 292 336 8,700 -1,306 Descending Los Angeles Center
Thu 10:59:35 AM 34.0142 -118.4983 96° East 287 330 7,300 -1,210 Descending Los Angeles Center
Thu 11:00:37 AM 34.0139 -118.4175 90° East 278 320 6,200 -968 Descending Los Angeles Center
Thu 11:01:39 AM 34.0244 -118.3092 83° East 273 314 5,300 -871 Descending Los Angeles Center
Thu 11:02:41 AM 34.0158 -118.2403 99° East 246 283 4,400 -1,065 Descending Los Angeles Center
Thu 11:03:43 AM 33.9697 -118.2650 204° Southwest 232 267 3,100 -1,258 Descending Los Angeles Center
Thu 11:04:45 AM 33.9622 -118.3192 261° West 186 214 1,800 -1,161 Descending Los Angeles Center
Thu 11:05:47 AM 33.9561 -118.3722 262° West 171 197 700 -823 Descending Los Angeles Center
Thu 11:06:49 AM 33.9506 -118.4200 262° West 154 177 100 -581 Descending Los Angeles Center
Thu 11:08:00 AM 33.9425 -118.4081 90° East  Level Estimated

Login

Don't have an account? Register now (free) for customized features, flight alerts, and more!